sensor_id;sensor_type;location;lat;lon;timestamp;P1;durP1;ratioP1;P2;durP2;ratioP2
34242;SDS011;20504;43.214;27.920;2024-02-16T00:00:51;24.40;;;14.35;;
34242;SDS011;20504;43.214;27.920;2024-02-16T00:03:29;24.88;;;13.90;;
34242;SDS011;20504;43.214;27.920;2024-02-16T00:06:04;24.17;;;13.43;;
34242;SDS011;20504;43.214;27.920;2024-02-16T00:08:46;27.63;;;14.15;;
34242;SDS011;20504;43.214;27.920;2024-02-16T00:11:21;25.17;;;12.90;;
34242;SDS011;20504;43.214;27.920;2024-02-16T00:14:06;26.85;;;14.82;;
34242;SDS011;20504;43.214;27.920;2024-02-16T00:16:36;28.50;;;15.30;;
34242;SDS011;20504;43.214;27.920;2024-02-16T00:19:07;23.38;;;13.95;;
34242;SDS011;20504;43.214;27.920;2024-02-16T00:24:39;27.65;;;15.02;;
34242;SDS011;20504;43.214;27.920;2024-02-16T00:27:13;29.55;;;16.10;;
34242;SDS011;20504;43.214;27.920;2024-02-16T00:29:44;28.00;;;15.25;;
34242;SDS011;20504;43.214;27.920;2024-02-16T00:32:19;27.13;;;16.38;;
34242;SDS011;20504;43.214;27.920;2024-02-16T00:35:06;23.92;;;14.80;;
34242;SDS011;20504;43.214;27.920;2024-02-16T00:40:30;29.37;;;15.40;;
34242;SDS011;20504;43.214;27.920;2024-02-16T00:43:14;26.98;;;16.05;;
34242;SDS011;20504;43.214;27.920;2024-02-16T00:45:42;26.85;;;14.85;;
34242;SDS011;20504;43.214;27.920;2024-02-16T00:48:11;29.65;;;16.48;;
34242;SDS011;20504;43.214;27.920;2024-02-16T00:50:43;32.15;;;17.15;;
34242;SDS011;20504;43.214;27.920;2024-02-16T00:53:47;29.88;;;15.68;;
34242;SDS011;20504;43.214;27.920;2024-02-16T00:56:14;26.63;;;16.15;;
34242;SDS011;20504;43.214;27.920;2024-02-16T00:58:56;30.85;;;16.55;;
34242;SDS011;20504;43.214;27.920;2024-02-16T01:01:28;26.95;;;15.73;;
34242;SDS011;20504;43.214;27.920;2024-02-16T01:03:59;29.10;;;16.38;;
34242;SDS011;20504;43.214;27.920;2024-02-16T01:06:26;32.70;;;16.83;;
34242;SDS011;20504;43.214;27.920;2024-02-16T01:08:57;27.83;;;16.45;;
34242;SDS011;20504;43.214;27.920;2024-02-16T01:11:29;30.38;;;16.67;;
34242;SDS011;20504;43.214;27.920;2024-02-16T01:13:57;31.77;;;16.15;;
34242;SDS011;20504;43.214;27.920;2024-02-16T01:16:26;32.30;;;17.30;;
34242;SDS011;20504;43.214;27.920;2024-02-16T01:18:55;30.67;;;16.30;;
34242;SDS011;20504;43.214;27.920;2024-02-16T01:21:45;36.28;;;17.02;;
34242;SDS011;20504;43.214;27.920;2024-02-16T01:24:18;29.27;;;16.67;;
34242;SDS011;20504;43.214;27.920;2024-02-16T01:26:47;30.23;;;16.20;;
34242;SDS011;20504;43.214;27.920;2024-02-16T01:29:20;33.17;;;18.02;;
34242;SDS011;20504;43.214;27.920;2024-02-16T01:31:49;32.60;;;17.25;;
34242;SDS011;20504;43.214;27.920;2024-02-16T01:34:15;31.23;;;16.58;;
34242;SDS011;20504;43.214;27.920;2024-02-16T01:36:41;31.37;;;17.07;;
34242;SDS011;20504;43.214;27.920;2024-02-16T01:39:08;30.70;;;16.27;;
34242;SDS011;20504;43.214;27.920;2024-02-16T01:41:58;32.15;;;17.05;;
34242;SDS011;20504;43.214;27.920;2024-02-16T01:44:26;34.03;;;17.50;;
34242;SDS011;20504;43.214;27.920;2024-02-16T01:46:52;31.73;;;17.33;;
34242;SDS011;20504;43.214;27.920;2024-02-16T01:49:18;33.55;;;17.48;;
34242;SDS011;20504;43.214;27.920;2024-02-16T01:51:50;32.25;;;16.85;;
34242;SDS011;20504;43.214;27.920;2024-02-16T01:54:17;28.42;;;17.27;;
34242;SDS011;20504;43.214;27.920;2024-02-16T01:56:44;32.92;;;16.33;;
34242;SDS011;20504;43.214;27.920;2024-02-16T01:59:16;26.55;;;16.35;;
34242;SDS011;20504;43.214;27.920;2024-02-16T02:02:04;29.35;;;16.10;;
34242;SDS011;20504;43.214;27.920;2024-02-16T02:04:33;32.85;;;16.83;;
34242;SDS011;20504;43.214;27.920;2024-02-16T02:07:11;28.70;;;16.27;;
34242;SDS011;20504;43.214;27.920;2024-02-16T02:09:58;31.35;;;16.40;;
34242;SDS011;20504;43.214;27.920;2024-02-16T02:12:24;29.63;;;15.95;;
34242;SDS011;20504;43.214;27.920;2024-02-16T02:14:57;30.00;;;15.98;;
34242;SDS011;20504;43.214;27.920;2024-02-16T02:17:28;26.75;;;15.48;;
34242;SDS011;20504;43.214;27.920;2024-02-16T02:20:01;32.95;;;16.17;;
34242;SDS011;20504;43.214;27.920;2024-02-16T02:22:29;28.30;;;15.93;;
34242;SDS011;20504;43.214;27.920;2024-02-16T02:24:59;27.33;;;15.45;;
34242;SDS011;20504;43.214;27.920;2024-02-16T02:27:26;30.73;;;16.67;;
34242;SDS011;20504;43.214;27.920;2024-02-16T02:29:52;26.67;;;15.18;;
34242;SDS011;20504;43.214;27.920;2024-02-16T02:32:24;24.20;;;13.80;;
34242;SDS011;20504;43.214;27.920;2024-02-16T02:34:49;28.77;;;14.70;;
34242;SDS011;20504;43.214;27.920;2024-02-16T02:37:15;27.77;;;14.83;;
34242;SDS011;20504;43.214;27.920;2024-02-16T02:39:49;26.85;;;14.48;;
34242;SDS011;20504;43.214;27.920;2024-02-16T02:42:14;27.30;;;14.90;;
34242;SDS011;20504;43.214;27.920;2024-02-16T02:44:46;24.05;;;14.02;;
34242;SDS011;20504;43.214;27.920;2024-02-16T02:47:16;27.50;;;13.82;;
34242;SDS011;20504;43.214;27.920;2024-02-16T02:49:45;28.17;;;14.60;;
34242;SDS011;20504;43.214;27.920;2024-02-16T02:52:12;27.77;;;14.85;;
34242;SDS011;20504;43.214;27.920;2024-02-16T02:54:38;23.03;;;13.70;;
34242;SDS011;20504;43.214;27.920;2024-02-16T02:57:06;25.83;;;13.18;;
34242;SDS011;20504;43.214;27.920;2024-02-16T02:59:38;25.45;;;13.23;;
34242;SDS011;20504;43.214;27.920;2024-02-16T03:02:10;24.50;;;13.43;;
34242;SDS011;20504;43.214;27.920;2024-02-16T03:04:40;22.38;;;12.75;;
34242;SDS011;20504;43.214;27.920;2024-02-16T03:09:40;20.63;;;12.50;;
34242;SDS011;20504;43.214;27.920;2024-02-16T03:12:16;25.27;;;14.02;;
34242;SDS011;20504;43.214;27.920;2024-02-16T03:14:47;24.50;;;13.98;;
34242;SDS011;20504;43.214;27.920;2024-02-16T03:17:14;22.50;;;12.90;;
34242;SDS011;20504;43.214;27.920;2024-02-16T03:19:40;26.33;;;13.73;;
34242;SDS011;20504;43.214;27.920;2024-02-16T03:22:11;25.40;;;13.27;;
34242;SDS011;20504;43.214;27.920;2024-02-16T03:24:49;23.15;;;12.75;;
34242;SDS011;20504;43.214;27.920;2024-02-16T03:27:36;23.95;;;11.93;;
34242;SDS011;20504;43.214;27.920;2024-02-16T03:30:05;24.30;;;13.27;;
34242;SDS011;20504;43.214;27.920;2024-02-16T03:32:58;25.45;;;12.88;;
34242;SDS011;20504;43.214;27.920;2024-02-16T03:35:32;21.45;;;12.27;;
34242;SDS011;20504;43.214;27.920;2024-02-16T03:38:09;24.33;;;13.00;;
34242;SDS011;20504;43.214;27.920;2024-02-16T03:40:44;28.52;;;14.10;;
34242;SDS011;20504;43.214;27.920;2024-02-16T03:43:16;20.93;;;13.30;;
34242;SDS011;20504;43.214;27.920;2024-02-16T03:45:45;24.92;;;14.38;;
34242;SDS011;20504;43.214;27.920;2024-02-16T03:48:17;26.15;;;13.73;;
34242;SDS011;20504;43.214;27.920;2024-02-16T03:50:44;28.35;;;13.20;;
34242;SDS011;20504;43.214;27.920;2024-02-16T03:53:15;25.63;;;13.40;;
34242;SDS011;20504;43.214;27.920;2024-02-16T03:55:48;24.45;;;13.57;;
34242;SDS011;20504;43.214;27.920;2024-02-16T03:58:19;27.73;;;13.63;;
34242;SDS011;20504;43.214;27.920;2024-02-16T04:00:51;26.02;;;14.63;;
34242;SDS011;20504;43.214;27.920;2024-02-16T04:06:01;28.55;;;14.43;;
34242;SDS011;20504;43.214;27.920;2024-02-16T04:08:55;28.60;;;14.18;;
34242;SDS011;20504;43.214;27.920;2024-02-16T04:11:24;23.05;;;13.82;;
34242;SDS011;20504;43.214;27.920;2024-02-16T04:13:50;27.20;;;14.17;;
34242;SDS011;20504;43.214;27.920;2024-02-16T04:16:17;23.77;;;13.55;;
34242;SDS011;20504;43.214;27.920;2024-02-16T04:18:50;27.50;;;14.65;;
34242;SDS011;20504;43.214;27.920;2024-02-16T04:21:26;40.83;;;20.25;;
34242;SDS011;20504;43.214;27.920;2024-02-16T04:26:36;24.95;;;12.85;;
34242;SDS011;20504;43.214;27.920;2024-02-16T04:29:04;22.90;;;13.57;;
34242;SDS011;20504;43.214;27.920;2024-02-16T04:31:40;26.67;;;14.43;;
34242;SDS011;20504;43.214;27.920;2024-02-16T04:34:24;28.35;;;14.02;;
34242;SDS011;20504;43.214;27.920;2024-02-16T04:37:04;27.48;;;14.00;;
34242;SDS011;20504;43.214;27.920;2024-02-16T04:39:31;26.63;;;14.50;;
34242;SDS011;20504;43.214;27.920;2024-02-16T04:42:01;26.30;;;13.45;;
34242;SDS011;20504;43.214;27.920;2024-02-16T04:44:30;26.15;;;15.18;;
34242;SDS011;20504;43.214;27.920;2024-02-16T04:47:30;26.67;;;13.98;;
34242;SDS011;20504;43.214;27.920;2024-02-16T04:49:56;26.27;;;14.00;;
34242;SDS011;20504;43.214;27.920;2024-02-16T04:52:56;25.25;;;13.00;;
34242;SDS011;20504;43.214;27.920;2024-02-16T04:56:10;24.08;;;13.13;;
34242;SDS011;20504;43.214;27.920;2024-02-16T04:58:43;30.13;;;15.75;;
34242;SDS011;20504;43.214;27.920;2024-02-16T05:07:19;24.38;;;13.88;;
34242;SDS011;20504;43.214;27.920;2024-02-16T05:10:08;24.60;;;13.50;;
34242;SDS011;20504;43.214;27.920;2024-02-16T05:12:45;20.92;;;12.98;;
34242;SDS011;20504;43.214;27.920;2024-02-16T05:15:57;24.92;;;13.05;;
34242;SDS011;20504;43.214;27.920;2024-02-16T05:24:32;23.83;;;13.20;;
34242;SDS011;20504;43.214;27.920;2024-02-16T05:27:46;31.70;;;13.98;;
34242;SDS011;20504;43.214;27.920;2024-02-16T05:30:52;29.20;;;13.80;;
34242;SDS011;20504;43.214;27.920;2024-02-16T05:33:21;23.83;;;14.25;;
34242;SDS011;20504;43.214;27.920;2024-02-16T05:35:49;23.15;;;13.13;;
34242;SDS011;20504;43.214;27.920;2024-02-16T05:38:20;23.95;;;13.35;;
34242;SDS011;20504;43.214;27.920;2024-02-16T05:40:58;22.85;;;12.50;;
34242;SDS011;20504;43.214;27.920;2024-02-16T05:43:29;26.73;;;13.35;;
34242;SDS011;20504;43.214;27.920;2024-02-16T05:45:59;23.35;;;13.93;;
34242;SDS011;20504;43.214;27.920;2024-02-16T05:49:18;27.73;;;14.13;;
34242;SDS011;20504;43.214;27.920;2024-02-16T05:51:46;26.27;;;13.05;;
34242;SDS011;20504;43.214;27.920;2024-02-16T05:57:40;21.13;;;12.38;;
34242;SDS011;20504;43.214;27.920;2024-02-16T06:26:24;19.98;;;11.85;;
34242;SDS011;20504;43.214;27.920;2024-02-16T06:29:06;20.63;;;12.20;;
34242;SDS011;20504;43.214;27.920;2024-02-16T06:31:35;19.25;;;11.10;;
34242;SDS011;20504;43.214;27.920;2024-02-16T06:34:20;18.90;;;11.80;;
34242;SDS011;20504;43.214;27.920;2024-02-16T06:37:09;21.38;;;11.50;;
34242;SDS011;20504;43.214;27.920;2024-02-16T06:39:37;15.90;;;11.25;;
34242;SDS011;20504;43.214;27.920;2024-02-16T06:42:03;21.27;;;11.38;;
34242;SDS011;20504;43.214;27.920;2024-02-16T06:44:32;18.42;;;10.68;;
34242;SDS011;20504;43.214;27.920;2024-02-16T06:47:00;19.65;;;11.00;;
34242;SDS011;20504;43.214;27.920;2024-02-16T06:49:26;19.00;;;11.47;;
34242;SDS011;20504;43.214;27.920;2024-02-16T06:51:51;19.00;;;10.67;;
34242;SDS011;20504;43.214;27.920;2024-02-16T06:54:45;19.90;;;10.27;;
34242;SDS011;20504;43.214;27.920;2024-02-16T06:57:17;19.92;;;10.10;;
34242;SDS011;20504;43.214;27.920;2024-02-16T06:59:57;20.90;;;10.93;;
34242;SDS011;20504;43.214;27.920;2024-02-16T07:02:25;23.23;;;10.88;;
34242;SDS011;20504;43.214;27.920;2024-02-16T07:04:53;21.42;;;12.95;;
34242;SDS011;20504;43.214;27.920;2024-02-16T07:07:30;21.20;;;12.07;;
34242;SDS011;20504;43.214;27.920;2024-02-16T07:10:01;21.65;;;12.82;;
34242;SDS011;20504;43.214;27.920;2024-02-16T07:12:31;20.75;;;11.93;;
34242;SDS011;20504;43.214;27.920;2024-02-16T07:15:19;24.42;;;13.40;;
34242;SDS011;20504;43.214;27.920;2024-02-16T07:17:46;23.17;;;13.23;;
34242;SDS011;20504;43.214;27.920;2024-02-16T07:20:15;22.67;;;14.05;;
34242;SDS011;20504;43.214;27.920;2024-02-16T07:22:44;24.10;;;14.25;;
34242;SDS011;20504;43.214;27.920;2024-02-16T07:25:15;25.40;;;14.48;;
34242;SDS011;20504;43.214;27.920;2024-02-16T07:27:45;31.52;;;15.38;;
34242;SDS011;20504;43.214;27.920;2024-02-16T07:30:17;27.10;;;14.80;;
34242;SDS011;20504;43.214;27.920;2024-02-16T07:32:48;27.67;;;15.40;;
34242;SDS011;20504;43.214;27.920;2024-02-16T07:35:19;31.73;;;15.15;;
34242;SDS011;20504;43.214;27.920;2024-02-16T07:37:46;25.17;;;14.27;;
34242;SDS011;20504;43.214;27.920;2024-02-16T07:40:35;25.52;;;14.45;;
34242;SDS011;20504;43.214;27.920;2024-02-16T07:43:02;24.35;;;13.52;;
34242;SDS011;20504;43.214;27.920;2024-02-16T07:45:31;30.83;;;14.50;;
34242;SDS011;20504;43.214;27.920;2024-02-16T07:48:00;24.13;;;14.32;;
34242;SDS011;20504;43.214;27.920;2024-02-16T07:50:32;26.70;;;15.48;;
34242;SDS011;20504;43.214;27.920;2024-02-16T07:52:59;20.90;;;13.30;;
34242;SDS011;20504;43.214;27.920;2024-02-16T07:55:30;25.33;;;14.73;;
34242;SDS011;20504;43.214;27.920;2024-02-16T07:57:56;25.35;;;14.73;;
34242;SDS011;20504;43.214;27.920;2024-02-16T08:00:35;25.80;;;14.23;;
34242;SDS011;20504;43.214;27.920;2024-02-16T08:03:09;21.25;;;13.75;;
34242;SDS011;20504;43.214;27.920;2024-02-16T08:05:34;23.57;;;14.30;;
34242;SDS011;20504;43.214;27.920;2024-02-16T08:08:03;22.98;;;13.90;;
34242;SDS011;20504;43.214;27.920;2024-02-16T08:18:32;28.33;;;15.20;;
34242;SDS011;20504;43.214;27.920;2024-02-16T08:21:52;29.13;;;15.23;;
34242;SDS011;20504;43.214;27.920;2024-02-16T08:25:31;27.65;;;15.75;;
34242;SDS011;20504;43.214;27.920;2024-02-16T08:28:57;22.75;;;11.48;;
34242;SDS011;20504;43.214;27.920;2024-02-16T08:34:59;39.55;;;23.02;;
34242;SDS011;20504;43.214;27.920;2024-02-16T08:56:09;27.30;;;16.10;;
34242;SDS011;20504;43.214;27.920;2024-02-16T08:59:06;30.95;;;17.20;;
34242;SDS011;20504;43.214;27.920;2024-02-16T09:07:34;30.20;;;17.83;;
34242;SDS011;20504;43.214;27.920;2024-02-16T09:12:40;32.40;;;18.60;;
34242;SDS011;20504;43.214;27.920;2024-02-16T09:15:28;31.00;;;19.38;;
34242;SDS011;20504;43.214;27.920;2024-02-16T09:18:17;33.63;;;19.02;;
34242;SDS011;20504;43.214;27.920;2024-02-16T09:21:04;29.98;;;17.48;;
34242;SDS011;20504;43.214;27.920;2024-02-16T09:29:06;33.47;;;17.15;;
34242;SDS011;20504;43.214;27.920;2024-02-16T09:32:31;34.55;;;19.23;;
34242;SDS011;20504;43.214;27.920;2024-02-16T09:35:36;36.22;;;18.67;;
34242;SDS011;20504;43.214;27.920;2024-02-16T09:41:28;32.38;;;17.67;;
34242;SDS011;20504;43.214;27.920;2024-02-16T09:44:24;32.85;;;17.40;;
34242;SDS011;20504;43.214;27.920;2024-02-16T09:47:15;32.80;;;17.50;;
34242;SDS011;20504;43.214;27.920;2024-02-16T09:49:50;39.60;;;20.73;;
34242;SDS011;20504;43.214;27.920;2024-02-16T09:52:16;39.30;;;20.95;;
34242;SDS011;20504;43.214;27.920;2024-02-16T09:54:56;39.40;;;21.23;;
34242;SDS011;20504;43.214;27.920;2024-02-16T09:57:29;44.58;;;23.63;;
34242;SDS011;20504;43.214;27.920;2024-02-16T09:59:58;43.13;;;24.65;;
34242;SDS011;20504;43.214;27.920;2024-02-16T10:02:45;54.83;;;28.20;;
34242;SDS011;20504;43.214;27.920;2024-02-16T10:05:27;61.58;;;32.47;;
34242;SDS011;20504;43.214;27.920;2024-02-16T10:07:59;51.22;;;25.60;;
34242;SDS011;20504;43.214;27.920;2024-02-16T10:11:09;44.58;;;25.17;;
34242;SDS011;20504;43.214;27.920;2024-02-16T10:14:25;39.30;;;21.35;;
34242;SDS011;20504;43.214;27.920;2024-02-16T10:17:05;38.53;;;21.08;;
34242;SDS011;20504;43.214;27.920;2024-02-16T10:20:01;41.65;;;22.33;;
34242;SDS011;20504;43.214;27.920;2024-02-16T10:25:08;33.35;;;20.05;;
34242;SDS011;20504;43.214;27.920;2024-02-16T10:34:05;40.63;;;22.23;;
34242;SDS011;20504;43.214;27.920;2024-02-16T10:42:40;45.97;;;23.85;;
34242;SDS011;20504;43.214;27.920;2024-02-16T10:46:03;41.58;;;23.35;;
34242;SDS011;20504;43.214;27.920;2024-02-16T10:48:53;43.03;;;23.67;;
34242;SDS011;20504;43.214;27.920;2024-02-16T10:51:36;44.88;;;23.92;;
34242;SDS011;20504;43.214;27.920;2024-02-16T10:54:35;51.10;;;28.52;;
34242;SDS011;20504;43.214;27.920;2024-02-16T10:57:56;53.58;;;28.83;;
34242;SDS011;20504;43.214;27.920;2024-02-16T11:00:54;59.65;;;32.30;;
34242;SDS011;20504;43.214;27.920;2024-02-16T11:04:04;59.72;;;29.38;;
34242;SDS011;20504;43.214;27.920;2024-02-16T11:10:13;59.33;;;30.63;;
34242;SDS011;20504;43.214;27.920;2024-02-16T11:16:06;57.35;;;30.05;;
34242;SDS011;20504;43.214;27.920;2024-02-16T11:19:02;58.85;;;29.88;;
34242;SDS011;20504;43.214;27.920;2024-02-16T11:22:03;56.85;;;30.83;;
34242;SDS011;20504;43.214;27.920;2024-02-16T11:25:07;68.28;;;35.30;;
34242;SDS011;20504;43.214;27.920;2024-02-16T11:28:27;57.25;;;31.85;;
34242;SDS011;20504;43.214;27.920;2024-02-16T11:31:24;62.22;;;34.60;;
34242;SDS011;20504;43.214;27.920;2024-02-16T11:34:38;62.92;;;34.17;;
34242;SDS011;20504;43.214;27.920;2024-02-16T11:37:46;60.67;;;33.70;;
34242;SDS011;20504;43.214;27.920;2024-02-16T11:40:24;57.42;;;31.52;;
34242;SDS011;20504;43.214;27.920;2024-02-16T11:43:23;56.30;;;30.50;;
34242;SDS011;20504;43.214;27.920;2024-02-16T11:49:07;55.85;;;30.00;;
34242;SDS011;20504;43.214;27.920;2024-02-16T11:51:54;55.13;;;29.67;;
34242;SDS011;20504;43.214;27.920;2024-02-16T12:23:48;65.13;;;37.55;;
34242;SDS011;20504;43.214;27.920;2024-02-16T12:26:37;54.65;;;29.85;;
34242;SDS011;20504;43.214;27.920;2024-02-16T12:29:28;52.60;;;28.02;;
34242;SDS011;20504;43.214;27.920;2024-02-16T12:32:08;69.22;;;35.30;;
34242;SDS011;20504;43.214;27.920;2024-02-16T12:34:49;59.40;;;33.72;;
34242;SDS011;20504;43.214;27.920;2024-02-16T12:37:24;62.78;;;30.92;;
34242;SDS011;20504;43.214;27.920;2024-02-16T12:40:12;50.03;;;28.77;;
34242;SDS011;20504;43.214;27.920;2024-02-16T12:42:38;58.00;;;32.00;;
34242;SDS011;20504;43.214;27.920;2024-02-16T12:45:04;56.77;;;30.13;;
34242;SDS011;20504;43.214;27.920;2024-02-16T12:47:30;58.10;;;30.13;;
34242;SDS011;20504;43.214;27.920;2024-02-16T12:49:57;60.30;;;30.58;;
34242;SDS011;20504;43.214;27.920;2024-02-16T12:52:29;60.47;;;30.27;;
34242;SDS011;20504;43.214;27.920;2024-02-16T12:55:00;63.65;;;30.95;;
34242;SDS011;20504;43.214;27.920;2024-02-16T12:59:52;60.67;;;32.33;;
34242;SDS011;20504;43.214;27.920;2024-02-16T13:02:18;63.83;;;31.17;;
34242;SDS011;20504;43.214;27.920;2024-02-16T13:04:43;56.33;;;29.63;;
34242;SDS011;20504;43.214;27.920;2024-02-16T13:07:11;61.83;;;30.42;;
34242;SDS011;20504;43.214;27.920;2024-02-16T13:09:39;57.80;;;30.52;;
34242;SDS011;20504;43.214;27.920;2024-02-16T13:12:10;57.92;;;31.23;;
34242;SDS011;20504;43.214;27.920;2024-02-16T13:14:36;61.57;;;32.20;;
34242;SDS011;20504;43.214;27.920;2024-02-16T13:17:02;61.60;;;31.43;;
34242;SDS011;20504;43.214;27.920;2024-02-16T13:19:30;55.00;;;28.33;;
34242;SDS011;20504;43.214;27.920;2024-02-16T13:21:55;59.17;;;29.50;;
34242;SDS011;20504;43.214;27.920;2024-02-16T13:24:22;58.40;;;29.10;;
34242;SDS011;20504;43.214;27.920;2024-02-16T13:26:50;67.32;;;30.65;;
34242;SDS011;20504;43.214;27.920;2024-02-16T13:29:15;61.07;;;29.47;;
34242;SDS011;20504;43.214;27.920;2024-02-16T13:31:42;61.10;;;29.57;;
34242;SDS011;20504;43.214;27.920;2024-02-16T13:34:08;60.80;;;28.77;;
34242;SDS011;20504;43.214;27.920;2024-02-16T13:36:38;59.30;;;29.65;;
34242;SDS011;20504;43.214;27.920;2024-02-16T13:39:05;49.20;;;25.98;;
34242;SDS011;20504;43.214;27.920;2024-02-16T13:41:33;51.75;;;24.10;;
34242;SDS011;20504;43.214;27.920;2024-02-16T13:44:00;84.38;;;41.90;;
34242;SDS011;20504;43.214;27.920;2024-02-16T13:46:36;63.00;;;34.47;;
34242;SDS011;20504;43.214;27.920;2024-02-16T13:49:05;55.33;;;30.85;;
34242;SDS011;20504;43.214;27.920;2024-02-16T13:51:41;49.28;;;28.05;;
34242;SDS011;20504;43.214;27.920;2024-02-16T13:54:16;49.28;;;27.60;;
34242;SDS011;20504;43.214;27.920;2024-02-16T13:56:47;52.03;;;26.33;;
34242;SDS011;20504;43.214;27.920;2024-02-16T13:59:13;51.05;;;25.73;;
34242;SDS011;20504;43.214;27.920;2024-02-16T14:01:39;53.57;;;28.83;;
34242;SDS011;20504;43.214;27.920;2024-02-16T14:04:06;50.10;;;24.57;;
34242;SDS011;20504;43.214;27.920;2024-02-16T14:06:53;54.22;;;26.15;;
34242;SDS011;20504;43.214;27.920;2024-02-16T14:09:19;55.70;;;26.10;;
34242;SDS011;20504;43.214;27.920;2024-02-16T14:11:47;55.13;;;29.17;;
34242;SDS011;20504;43.214;27.920;2024-02-16T14:14:19;47.00;;;25.85;;
34242;SDS011;20504;43.214;27.920;2024-02-16T14:16:47;45.58;;;23.92;;
34242;SDS011;20504;43.214;27.920;2024-02-16T14:19:13;45.80;;;23.63;;
34242;SDS011;20504;43.214;27.920;2024-02-16T14:21:38;39.20;;;22.47;;
34242;SDS011;20504;43.214;27.920;2024-02-16T14:24:04;42.10;;;22.77;;
34242;SDS011;20504;43.214;27.920;2024-02-16T14:26:39;46.42;;;23.88;;
34242;SDS011;20504;43.214;27.920;2024-02-16T14:29:08;37.40;;;21.13;;
34242;SDS011;20504;43.214;27.920;2024-02-16T14:31:41;35.60;;;19.17;;
34242;SDS011;20504;43.214;27.920;2024-02-16T14:34:14;44.47;;;19.55;;
34242;SDS011;20504;43.214;27.920;2024-02-16T14:39:08;44.75;;;21.67;;
34242;SDS011;20504;43.214;27.920;2024-02-16T14:41:36;44.45;;;20.98;;
34242;SDS011;20504;43.214;27.920;2024-02-16T14:44:03;36.08;;;19.10;;
34242;SDS011;20504;43.214;27.920;2024-02-16T14:46:29;38.22;;;18.33;;
34242;SDS011;20504;43.214;27.920;2024-02-16T14:48:56;33.10;;;18.77;;
34242;SDS011;20504;43.214;27.920;2024-02-16T14:51:34;41.40;;;19.55;;
34242;SDS011;20504;43.214;27.920;2024-02-16T14:54:05;37.25;;;19.02;;
34242;SDS011;20504;43.214;27.920;2024-02-16T14:56:41;29.50;;;16.92;;
34242;SDS011;20504;43.214;27.920;2024-02-16T14:59:08;30.33;;;16.75;;
34242;SDS011;20504;43.214;27.920;2024-02-16T15:01:36;41.40;;;18.70;;
34242;SDS011;20504;43.214;27.920;2024-02-16T15:05:04;37.38;;;19.65;;
34242;SDS011;20504;43.214;27.920;2024-02-16T15:07:39;41.63;;;22.08;;
34242;SDS011;20504;43.214;27.920;2024-02-16T15:10:17;39.55;;;21.25;;
34242;SDS011;20504;43.214;27.920;2024-02-16T15:12:50;45.05;;;24.50;;
34242;SDS011;20504;43.214;27.920;2024-02-16T15:15:18;51.38;;;28.08;;
34242;SDS011;20504;43.214;27.920;2024-02-16T15:23:20;48.00;;;26.55;;
34242;SDS011;20504;43.214;27.920;2024-02-16T15:25:45;50.87;;;26.20;;
34242;SDS011;20504;43.214;27.920;2024-02-16T15:28:12;52.67;;;25.95;;
34242;SDS011;20504;43.214;27.920;2024-02-16T15:30:41;49.65;;;25.20;;
34242;SDS011;20504;43.214;27.920;2024-02-16T15:33:07;53.13;;;26.23;;
34242;SDS011;20504;43.214;27.920;2024-02-16T15:35:34;54.80;;;25.85;;
34242;SDS011;20504;43.214;27.920;2024-02-16T15:38:02;45.47;;;24.15;;
34242;SDS011;20504;43.214;27.920;2024-02-16T15:40:32;48.70;;;22.45;;
34242;SDS011;20504;43.214;27.920;2024-02-16T15:42:58;41.70;;;23.25;;
34242;SDS011;20504;43.214;27.920;2024-02-16T15:45:32;45.45;;;24.92;;
34242;SDS011;20504;43.214;27.920;2024-02-16T15:48:04;40.08;;;20.58;;
34242;SDS011;20504;43.214;27.920;2024-02-16T15:50:32;45.17;;;21.60;;
34242;SDS011;20504;43.214;27.920;2024-02-16T15:52:58;36.53;;;19.50;;
34242;SDS011;20504;43.214;27.920;2024-02-16T15:55:24;42.58;;;24.40;;
34242;SDS011;20504;43.214;27.920;2024-02-16T15:57:53;41.30;;;20.63;;
34242;SDS011;20504;43.214;27.920;2024-02-16T16:00:20;39.10;;;22.25;;
34242;SDS011;20504;43.214;27.920;2024-02-16T16:02:47;40.47;;;20.90;;
34242;SDS011;20504;43.214;27.920;2024-02-16T16:05:13;34.60;;;19.77;;
34242;SDS011;20504;43.214;27.920;2024-02-16T16:07:44;37.70;;;19.23;;
34242;SDS011;20504;43.214;27.920;2024-02-16T16:10:10;39.58;;;19.63;;
34242;SDS011;20504;43.214;27.920;2024-02-16T16:12:40;38.55;;;19.95;;
34242;SDS011;20504;43.214;27.920;2024-02-16T16:15:07;39.42;;;21.00;;
34242;SDS011;20504;43.214;27.920;2024-02-16T16:17:35;36.97;;;20.13;;
34242;SDS011;20504;43.214;27.920;2024-02-16T16:20:02;34.05;;;19.83;;
34242;SDS011;20504;43.214;27.920;2024-02-16T16:24:55;56.87;;;21.30;;
34242;SDS011;20504;43.214;27.920;2024-02-16T16:27:23;31.77;;;18.40;;
34242;SDS011;20504;43.214;27.920;2024-02-16T16:29:50;38.38;;;21.17;;
34242;SDS011;20504;43.214;27.920;2024-02-16T16:32:26;36.22;;;20.15;;
34242;SDS011;20504;43.214;27.920;2024-02-16T16:34:53;35.22;;;18.13;;
34242;SDS011;20504;43.214;27.920;2024-02-16T16:37:22;34.65;;;18.75;;
34242;SDS011;20504;43.214;27.920;2024-02-16T16:42:17;31.40;;;17.92;;
34242;SDS011;20504;43.214;27.920;2024-02-16T16:44:44;31.80;;;18.75;;
34242;SDS011;20504;43.214;27.920;2024-02-16T16:47:14;36.55;;;19.02;;
34242;SDS011;20504;43.214;27.920;2024-02-16T16:49:41;38.63;;;20.25;;
34242;SDS011;20504;43.214;27.920;2024-02-16T16:52:07;32.30;;;19.58;;
34242;SDS011;20504;43.214;27.920;2024-02-16T16:54:34;37.35;;;19.42;;
34242;SDS011;20504;43.214;27.920;2024-02-16T16:57:03;39.88;;;21.48;;
34242;SDS011;20504;43.214;27.920;2024-02-16T16:59:33;35.67;;;20.65;;
34242;SDS011;20504;43.214;27.920;2024-02-16T17:01:59;40.33;;;21.23;;
34242;SDS011;20504;43.214;27.920;2024-02-16T17:04:28;37.50;;;20.52;;
34242;SDS011;20504;43.214;27.920;2024-02-16T17:07:01;43.42;;;21.00;;
34242;SDS011;20504;43.214;27.920;2024-02-16T17:10:13;40.90;;;19.92;;
34242;SDS011;20504;43.214;27.920;2024-02-16T17:13:11;40.38;;;19.77;;
34242;SDS011;20504;43.214;27.920;2024-02-16T17:16:03;41.28;;;19.77;;
34242;SDS011;20504;43.214;27.920;2024-02-16T17:19:07;42.63;;;20.45;;
34242;SDS011;20504;43.214;27.920;2024-02-16T17:28:50;51.85;;;25.25;;
34242;SDS011;20504;43.214;27.920;2024-02-16T17:31:40;38.70;;;19.10;;
34242;SDS011;20504;43.214;27.920;2024-02-16T17:34:06;41.70;;;20.00;;
34242;SDS011;20504;43.214;27.920;2024-02-16T17:36:33;43.05;;;20.83;;
34242;SDS011;20504;43.214;27.920;2024-02-16T17:39:00;35.37;;;18.73;;
34242;SDS011;20504;43.214;27.920;2024-02-16T17:41:27;45.17;;;20.33;;
34242;SDS011;20504;43.214;27.920;2024-02-16T17:43:55;38.05;;;19.42;;
34242;SDS011;20504;43.214;27.920;2024-02-16T17:46:22;39.58;;;19.25;;
34242;SDS011;20504;43.214;27.920;2024-02-16T17:48:48;40.97;;;20.42;;
34242;SDS011;20504;43.214;27.920;2024-02-16T17:51:14;38.65;;;20.17;;
34242;SDS011;20504;43.214;27.920;2024-02-16T17:53:41;38.90;;;20.05;;
34242;SDS011;20504;43.214;27.920;2024-02-16T17:56:06;40.87;;;20.77;;